Time;durP1;ratioP1;P1;durP2;ratioP2;P2;SDS_P1;SDS_P2;PMS_P1;PMS_P2;Temp;Humidity;BMP_temperature;BMP_pressure;BME280_temperature;BME280_humidity;BME280_pressure;Samples;Min_cycle;Max_cycle;Signal;HPM_P1;HPM_P2
2021/11/27 00:00:52;;;;;;;41.88;22.90;;;;;;;1.38;95.52;98986.56;4803386;29;20169;-69
2021/11/27 00:03:18;;;;;;;43.20;19.17;;;;;;;1.41;95.40;98992.50;4802477;29;20055;-72
2021/11/27 00:05:45;;;;;;;40.45;19.55;;;;;;;1.40;95.30;98989.97;4803409;29;20142;-69
2021/11/27 00:08:13;;;;;;;38.83;18.15;;;;;;;1.34;94.88;98974.44;4803537;29;20146;-68
2021/11/27 00:10:41;;;;;;;35.78;18.50;;;;;;;1.23;95.16;98950.38;4801608;29;20054;-68
2021/11/27 00:13:07;;;;;;;35.78;18.67;;;;;;;1.44;94.94;98986.13;4817087;29;20066;-68
2021/11/27 00:15:35;;;;;;;34.58;18.95;;;;;;;1.07;94.73;98916.88;4803253;29;20564;-69
2021/11/27 00:18:01;;;;;;;32.88;17.23;;;;;;;1.41;94.25;98967.69;4817719;29;20143;-69
2021/11/27 00:20:32;;;;;;;36.42;19.48;;;;;;;1.41;94.06;98965.03;4786826;29;20134;-68
2021/11/27 00:22:58;;;;;;;37.47;18.40;;;;;;;1.34;93.83;98958.44;4801915;29;20496;-69
2021/11/27 00:25:24;;;;;;;36.17;17.50;;;;;;;1.43;93.92;98963.97;4795249;29;20063;-70
2021/11/27 00:27:50;;;;;;;35.35;18.25;;;;;;;1.43;93.95;98955.13;4769511;30;20067;-69
2021/11/27 00:30:19;;;;;;;34.72;18.40;;;;;;;1.49;94.17;98957.34;4783788;30;20539;-69
2021/11/27 00:32:45;;;;;;;32.97;15.63;;;;;;;1.37;93.28;98927.13;4783667;30;20059;-69
2021/11/27 00:35:11;;;;;;;32.97;16.88;;;;;;;1.45;93.40;98939.88;4769129;30;20135;-67
2021/11/27 00:37:38;;;;;;;31.38;17.73;;;;;;;1.47;93.80;98937.97;4783750;30;20142;-68
2021/11/27 00:40:06;;;;;;;32.13;16.45;;;;;;;1.54;93.42;98939.22;4784625;29;20059;-68
2021/11/27 00:42:32;;;;;;;31.08;14.88;;;;;;;1.54;93.12;98939.22;4788901;30;20097;-68
2021/11/27 00:44:58;;;;;;;30.65;16.20;;;;;;;1.52;92.92;98934.97;4787165;30;20087;-70
2021/11/27 00:47:25;;;;;;;31.23;16.75;;;;;;;1.56;92.86;98942.63;4788524;30;20066;-69
2021/11/27 00:49:53;;;;;;;34.85;15.88;;;;;;;1.58;92.88;98943.38;4786492;30;20110;-69
2021/11/27 00:52:22;;;;;;;29.98;15.80;;;;;;;1.44;92.70;98917.72;4773505;30;20091;-67
2021/11/27 00:54:49;;;;;;;34.80;15.77;;;;;;;1.59;92.75;98933.56;4769013;30;20448;-69
2021/11/27 00:57:15;;;;;;;33.13;16.67;;;;;;;1.50;92.63;98921.78;4768659;30;20059;-69
2021/11/27 00:59:41;;;;;;;31.50;16.42;;;;;;;1.25;92.03;98884.59;4768680;30;20142;-69
2021/11/27 01:02:07;;;;;;;32.63;14.65;;;;;;;1.39;92.35;98897.72;4769080;30;20170;-72
2021/11/27 01:04:34;;;;;;;38.90;19.83;;;;;;;1.60;92.18;98922.78;4771218;30;20095;-68
2021/11/27 01:07:00;;;;;;;31.92;16.45;;;;;;;1.58;92.08;98915.88;4755272;30;20062;-68
2021/11/27 01:09:26;;;;;;;35.25;18.02;;;;;;;1.62;92.04;98926.19;4755250;30;20064;-69
2021/11/27 01:11:53;;;;;;;39.85;16.50;;;;;;;1.61;91.81;98897.84;4769607;30;20079;-69
2021/11/27 01:14:22;;;;;;;40.13;19.00;;;;;;;1.62;91.72;98915.53;4770462;30;20067;-68
2021/11/27 01:16:52;;;;;;;39.00;20.23;;;;;;;1.53;91.81;98913.53;4768788;30;20070;-70
2021/11/27 01:19:19;;;;;;;39.25;19.55;;;;;;;1.47;91.66;98906.00;4768777;30;20059;-69
2021/11/27 01:21:53;;;;;;;34.22;17.00;;;;;;;1.42;91.73;98902.81;4768958;30;20121;-69
2021/11/27 01:24:19;;;;;;;35.90;17.13;;;;;;;1.53;91.61;98942.84;4769969;30;20060;-67
2021/11/27 01:26:46;;;;;;;39.58;17.83;;;;;;;1.54;91.58;98943.72;4768996;30;20059;-68
2021/11/27 01:29:13;;;;;;;40.00;22.17;;;;;;;1.49;91.95;98935.19;4769358;30;20075;-69
2021/11/27 01:31:39;;;;;;;38.45;19.83;;;;;;;1.48;91.84;98937.00;4770999;30;20067;-71
2021/11/27 01:34:06;;;;;;;44.65;20.33;;;;;;;1.52;91.77;98954.47;4769178;30;20047;-71
2021/11/27 01:36:32;;;;;;;37.20;19.45;;;;;;;1.48;91.91;98952.13;4768946;30;20063;-67
2021/11/27 01:38:59;;;;;;;37.85;22.08;;;;;;;1.45;92.13;98942.53;4769499;30;20051;-69
2021/11/27 01:41:25;;;;;;;38.63;19.00;;;;;;;1.47;92.34;98953.94;4768387;30;20495;-68
2021/11/27 01:43:51;;;;;;;39.53;18.75;;;;;;;1.46;92.14;98941.56;4755178;30;20066;-68
2021/11/27 01:46:17;;;;;;;37.95;17.58;;;;;;;1.47;91.99;98948.63;4769625;30;20481;-68
2021/11/27 01:48:45;;;;;;;38.95;21.33;;;;;;;1.44;91.67;98932.88;4801516;29;20070;-69
2021/11/27 01:51:15;;;;;;;39.67;21.73;;;;;;;1.38;91.64;98919.97;4798368;29;20062;-68
2021/11/27 01:53:45;;;;;;;36.55;17.67;;;;;;;1.29;92.13;98913.53;4807580;29;20062;-69
2021/11/27 01:56:15;;;;;;;37.90;17.83;;;;;;;1.36;92.17;98919.25;4821913;29;20062;-69
2021/11/27 01:58:41;;;;;;;;;;;;;;;1.46;91.48;98946.91;4793016;29;20058;-68
2021/11/27 02:01:11;;;;;;;40.13;18.20;;;;;;;1.39;91.64;98929.66;4807576;29;19929;-67
2021/11/27 02:03:37;;;;;;;38.38;19.00;;;;;;;1.30;91.68;98914.38;4806933;29;20050;-69
2021/11/27 02:06:26;;;;;;;43.97;21.30;;;;;;;1.44;92.01;98944.34;4823070;29;20058;-68
2021/11/27 02:08:54;;;;;;;38.03;18.10;;;;;;;1.39;91.59;98930.53;4822415;29;20066;-67
2021/11/27 02:11:25;;;;;;;37.95;17.58;;;;;;;1.44;91.67;98943.50;4807197;29;20370;-69
2021/11/27 02:14:13;;;;;;;37.53;17.15;;;;;;;1.43;91.52;98945.34;4798523;29;20058;-68
2021/11/27 02:16:55;;;;;;;39.63;22.42;;;;;;;1.35;91.37;98933.50;4808343;29;20598;-68
2021/11/27 02:19:25;;;;;;;39.13;19.00;;;;;;;1.41;91.55;98949.06;4793866;29;20046;-68
2021/11/27 02:21:51;;;;;;;40.05;20.88;;;;;;;1.37;91.66;98936.94;4776759;29;20098;-67
2021/11/27 02:24:19;;;;;;;36.60;18.75;;;;;;;1.37;91.52;98939.59;4806866;29;20118;-70
2021/11/27 02:26:46;;;;;;;37.63;18.85;;;;;;;1.43;91.31;98947.16;4806826;29;20062;-67
2021/11/27 02:29:24;;;;;;;38.92;21.85;;;;;;;1.40;91.02;98942.03;4821585;29;20126;-68
2021/11/27 02:31:50;;;;;;;37.10;20.50;;;;;;;1.43;91.42;98939.16;4821891;29;20490;-68
2021/11/27 02:34:16;;;;;;;40.90;19.48;;;;;;;1.37;90.89;98920.94;4775772;29;20134;-70
2021/11/27 02:36:47;;;;;;;35.85;17.05;;;;;;;1.40;91.22;98931.38;4786235;30;20536;-68
2021/11/27 02:39:14;;;;;;;35.80;17.85;;;;;;;1.44;91.29;98927.53;4786750;30;20059;-68
2021/11/27 02:41:40;;;;;;;36.90;16.33;;;;;;;1.41;90.85;98927.75;4785141;30;20055;-67
2021/11/27 02:44:08;;;;;;;34.08;19.50;;;;;;;1.35;90.63;98917.53;4785362;30;20061;-68
2021/11/27 02:46:39;;;;;;;36.28;18.33;;;;;;;1.40;90.39;98912.75;4785553;30;20161;-68
2021/11/27 02:49:06;;;;;;;34.67;20.30;;;;;;;1.40;90.94;98920.72;4785999;30;20058;-68
2021/11/27 02:51:31;;;;;;;36.33;20.60;;;;;;;1.45;90.91;98942.53;4784880;30;20520;-69
2021/11/27 02:53:58;;;;;;;34.90;16.65;;;;;;;1.46;90.95;98933.59;4786575;29;20429;-67
2021/11/27 02:56:24;;;;;;;32.63;15.23;;;;;;;1.42;90.38;98929.44;4785407;30;20073;-69
2021/11/27 02:58:50;;;;;;;31.33;15.18;;;;;;;1.46;90.54;98936.25;4770095;30;20047;-69
2021/11/27 03:01:16;;;;;;;38.35;19.98;;;;;;;1.40;90.56;98932.22;4754852;30;20126;-68
2021/11/27 03:03:42;;;;;;;31.63;16.85;;;;;;;1.44;90.07;98938.19;4769736;30;20517;-68
2021/11/27 03:06:08;;;;;;;34.55;16.77;;;;;;;1.45;90.34;98930.06;4769747;30;20063;-68
2021/11/27 03:08:36;;;;;;;36.25;16.48;;;;;;;1.45;90.43;98926.56;4769980;30;20063;-69
2021/11/27 03:11:02;;;;;;;32.40;17.15;;;;;;;1.39;90.01;98919.88;4784677;30;20063;-67
2021/11/27 03:13:34;;;;;;;37.03;15.50;;;;;;;1.47;89.82;98932.66;4784448;30;20059;-67
2021/11/27 03:16:01;;;;;;;36.95;19.60;;;;;;;1.36;89.76;98920.09;4769811;30;20069;-68
2021/11/27 03:18:27;;;;;;;34.35;18.38;;;;;;;1.45;89.84;98929.22;4784418;30;20146;-67
2021/11/27 03:20:55;;;;;;;36.88;18.92;;;;;;;1.40;90.10;98915.41;4769604;30;20067;-68
2021/11/27 03:23:21;;;;;;;35.63;18.42;;;;;;;1.23;90.18;98883.81;4769723;30;20430;-68
2021/11/27 03:25:48;;;;;;;33.70;16.77;;;;;;;1.46;90.10;98920.28;4784420;30;20111;-68
2021/11/27 03:28:14;;;;;;;37.65;19.30;;;;;;;1.44;90.00;98914.22;4786153;30;20063;-68
2021/11/27 03:30:40;;;;;;;37.03;18.50;;;;;;;1.40;89.93;98902.94;4786173;30;20066;-68
2021/11/27 03:33:08;;;;;;;37.40;20.63;;;;;;;1.33;90.13;98892.84;4769775;30;20070;-69
2021/11/27 03:35:34;;;;;;;33.72;18.35;;;;;;;1.42;89.74;98913.47;4754854;30;20047;-69
2021/11/27 03:38:03;;;;;;;35.13;18.98;;;;;;;1.41;89.92;98917.09;4754818;30;20051;-68
2021/11/27 03:40:31;;;;;;;34.60;18.17;;;;;;;1.39;89.78;98916.34;4770015;30;20098;-70
2021/11/27 03:42:58;;;;;;;33.10;15.60;;;;;;;1.44;89.78;98922.22;4770081;30;20062;-69
2021/11/27 03:45:25;;;;;;;33.67;15.90;;;;;;;1.41;89.90;98923.28;4769449;30;20063;-69
2021/11/27 03:47:59;;;;;;;38.05;19.02;;;;;;;1.41;89.71;98933.09;4769155;30;20058;-70
2021/11/27 03:50:48;;;;;;;35.95;18.55;;;;;;;1.44;89.84;98938.19;4769157;30;20067;-70
2021/11/27 03:53:21;;;;;;;34.35;19.90;;;;;;;1.39;89.95;98924.34;4768939;30;20447;-70
2021/11/27 03:55:47;;;;;;;37.63;20.80;;;;;;;1.19;89.69;98892.03;4769226;30;20099;-69
2021/11/27 03:58:13;;;;;;;37.65;20.58;;;;;;;1.39;89.76;98925.22;4784175;30;20074;-70
2021/11/27 04:00:39;;;;;;;40.00;23.27;;;;;;;1.36;89.44;98916.59;4769170;30;20409;-70
2021/11/27 04:03:06;;;;;;;37.47;20.27;;;;;;;1.41;89.79;98927.75;4769117;30;20502;-69
2021/11/27 04:05:34;;;;;;;38.70;21.38;;;;;;;1.38;89.52;98920.81;4769399;30;20574;-69
2021/11/27 04:08:01;;;;;;;36.92;18.40;;;;;;;1.41;89.73;98917.09;4770327;30;20058;-70
2021/11/27 04:10:27;;;;;;;40.13;24.15;;;;;;;1.42;89.28;98924.13;4771170;30;20115;-69
2021/11/27 04:12:53;;;;;;;40.50;21.83;;;;;;;1.38;89.33;98927.97;4771275;30;20055;-69
2021/11/27 04:15:19;;;;;;;37.80;19.95;;;;;;;1.26;89.46;98896.91;4755597;30;20051;-70
2021/11/27 04:17:46;;;;;;;41.88;22.15;;;;;;;1.28;89.43;98916.28;4741807;30;20063;-70
2021/11/27 04:20:12;;;;;;;37.38;20.45;;;;;;;1.33;89.36;98924.81;4771028;30;20063;-70
2021/11/27 04:22:38;;;;;;;41.20;19.33;;;;;;;1.38;89.79;98927.97;4754780;30;20059;-70
2021/11/27 04:25:07;;;;;;;37.50;21.02;;;;;;;1.34;89.29;98918.50;4783733;30;20524;-70
2021/11/27 04:27:34;;;;;;;45.75;23.45;;;;;;;1.33;89.14;98924.81;4784101;30;20147;-69
2021/11/27 04:30:06;;;;;;;37.67;19.45;;;;;;;1.35;89.17;98917.53;4784289;30;20479;-70
2021/11/27 04:32:32;;;;;;;40.67;21.73;;;;;;;1.32;89.42;98912.47;4769030;30;20063;-71
2021/11/27 04:35:22;;;;;;;32.67;16.15;;;;;;;1.37;89.34;98934.28;4766816;29;20067;-70
2021/11/27 04:37:49;;;;;;;36.28;21.25;;;;;;;1.32;89.37;98917.78;4768983;30;20047;-70
2021/11/27 04:40:15;;;;;;;40.60;22.17;;;;;;;1.36;88.75;98936.09;4798714;29;20514;-71
2021/11/27 04:42:44;;;;;;;37.35;21.35;;;;;;;1.19;88.82;98902.69;4798406;29;20063;-70
2021/11/27 04:45:10;;;;;;;38.85;20.05;;;;;;;1.29;88.79;98924.19;4769081;29;20065;-70
2021/11/27 04:47:38;;;;;;;38.15;18.90;;;;;;;1.25;89.54;98916.53;4739992;30;20059;-70
2021/11/27 04:50:08;;;;;;;37.15;17.65;;;;;;;1.34;89.55;98931.81;4769084;30;20071;-73
2021/11/27 04:52:34;;;;;;;34.88;20.63;;;;;;;1.30;88.96;98935.66;4768479;30;20178;-69
2021/11/27 04:55:02;;;;;;;35.90;21.20;;;;;;;1.32;89.15;98936.44;4765915;30;20525;-68
2021/11/27 04:57:29;;;;;;;39.28;16.05;;;;;;;1.29;88.88;98926.00;4765572;30;20086;-70
2021/11/27 04:59:55;;;;;;;38.70;18.55;;;;;;;1.33;89.15;98935.47;4736004;30;20098;-70
2021/11/27 05:02:21;;;;;;;35.97;19.55;;;;;;;1.20;88.88;98911.50;4765531;30;20164;-71
2021/11/27 05:04:47;;;;;;;34.53;18.90;;;;;;;1.09;88.90;98891.00;4765637;30;20064;-70
2021/11/27 05:07:13;;;;;;;34.85;19.35;;;;;;;1.12;88.88;98889.94;4765645;30;20056;-70
2021/11/27 05:09:39;;;;;;;35.90;19.42;;;;;;;1.30;89.40;98914.38;4736164;30;20064;-70
2021/11/27 05:12:05;;;;;;;32.50;13.82;;;;;;;1.27;88.85;98915.44;4736252;30;20060;-70
2021/11/27 05:14:32;;;;;;;36.72;19.02;;;;;;;1.29;88.61;98918.00;4765703;30;20150;-70
2021/11/27 05:16:58;;;;;;;33.67;19.38;;;;;;;1.30;88.45;98930.34;4751484;30;20063;-71
2021/11/27 05:19:24;;;;;;;32.78;14.32;;;;;;;1.33;88.37;98940.78;4753611;30;20094;-71
2021/11/27 05:21:56;;;;;;;34.70;17.58;;;;;;;1.24;88.14;98920.13;4740115;30;20505;-71
2021/11/27 05:24:22;;;;;;;29.52;15.10;;;;;;;1.14;88.30;98899.50;4753745;30;20521;-71
2021/11/27 05:26:54;;;;;;;31.48;15.75;;;;;;;1.29;88.11;98928.66;4769752;30;20074;-70
2021/11/27 05:29:35;;;;;;;30.38;15.93;;;;;;;1.13;88.08;98905.81;4759329;30;20514;-71
2021/11/27 05:32:38;;;;;;;34.25;14.82;;;;;;;1.15;87.79;98909.19;4786692;30;20058;-69
2021/11/27 05:35:08;;;;;;;28.05;14.38;;;;;;;1.12;87.92;98906.75;4772806;30;20087;-69
2021/11/27 05:37:34;;;;;;;30.30;17.17;;;;;;;1.27;87.69;98925.25;4771910;30;20502;-71
2021/11/27 05:40:02;;;;;;;30.35;14.23;;;;;;;1.28;87.38;98937.56;4756835;30;20062;-70
2021/11/27 05:42:28;;;;;;;34.25;16.52;;;;;;;1.32;87.42;98929.28;4771735;30;20059;-70
2021/11/27 05:44:55;;;;;;;30.35;15.70;;;;;;;1.00;87.04;98878.34;4756808;30;20066;-70
2021/11/27 05:47:23;;;;;;;28.48;12.65;;;;;;;1.30;87.19;98930.34;4756554;30;20069;-72
2021/11/27 05:49:50;;;;;;;32.20;17.77;;;;;;;1.32;86.91;98928.44;4756751;30;20554;-71
2021/11/27 05:52:20;;;;;;;29.13;14.40;;;;;;;1.26;86.88;98923.53;4786598;29;20051;-70
2021/11/27 05:54:46;;;;;;;34.00;14.07;;;;;;;1.29;86.97;98928.66;4787052;30;20146;-70
2021/11/27 05:57:11;;;;;;;29.35;15.95;;;;;;;1.20;86.42;98911.50;4756918;30;20138;-71
2021/11/27 05:59:38;;;;;;;27.95;15.02;;;;;;;1.31;86.15;98927.56;4756962;30;20108;-71
2021/11/27 06:02:04;;;;;;;33.08;15.13;;;;;;;1.12;86.02;98901.41;4757059;30;20059;-72
2021/11/27 06:04:29;;;;;;;27.38;12.55;;;;;;;1.15;86.07;98901.19;4771574;30;20124;-73
2021/11/27 06:06:56;;;;;;;28.40;14.32;;;;;;;1.24;85.39;98917.47;4772257;30;20059;-72
2021/11/27 06:09:23;;;;;;;31.33;14.65;;;;;;;1.24;85.45;98914.81;4757380;30;20051;-70
2021/11/27 06:11:49;;;;;;;29.13;13.05;;;;;;;1.35;85.11;98936.19;4743599;30;20051;-71
2021/11/27 06:14:15;;;;;;;28.48;12.13;;;;;;;1.30;85.16;98936.53;4757909;30;20162;-72
2021/11/27 06:16:41;;;;;;;29.10;15.73;;;;;;;1.30;84.80;98931.19;4771954;30;20145;-71
2021/11/27 06:19:07;;;;;;;30.77;13.60;;;;;;;1.30;84.38;98914.38;4772289;30;20051;-69
2021/11/27 06:21:33;;;;;;;28.38;11.95;;;;;;;1.33;83.68;98924.81;4772377;30;20591;-70
2021/11/27 06:23:59;;;;;;;26.05;13.07;;;;;;;1.33;83.63;98919.47;4768347;30;20108;-70
2021/11/27 06:26:25;;;;;;;30.40;15.25;;;;;;;1.28;83.37;98900.31;4783674;29;20084;-71
2021/11/27 06:28:51;;;;;;;26.55;13.55;;;;;;;1.35;84.29;98906.88;4785358;30;20558;-70
2021/11/27 06:31:17;;;;;;;26.70;12.05;;;;;;;1.37;83.46;98910.31;4755736;30;20066;-71
2021/11/27 06:33:43;;;;;;;30.23;12.43;;;;;;;1.38;83.61;98909.34;4765369;30;20060;-71
2021/11/27 06:36:09;;;;;;;27.33;13.82;;;;;;;1.40;83.49;98918.91;4786053;30;20617;-69
2021/11/27 06:38:36;;;;;;;29.52;11.73;;;;;;;1.24;82.81;98877.53;4774404;29;20054;-69
2021/11/27 06:41:03;;;;;;;27.33;13.23;;;;;;;1.22;82.50;98890.97;4759528;30;20494;-69
2021/11/27 06:43:39;;;;;;;25.63;11.70;;;;;;;1.43;83.11;98909.88;4771149;29;20062;-69
2021/11/27 06:46:14;;;;;;;29.42;13.38;;;;;;;1.35;82.65;98897.13;4775249;30;20055;-69
2021/11/27 06:48:40;;;;;;;32.85;15.07;;;;;;;1.25;81.97;98879.25;4773429;30;20062;-69
2021/11/27 06:51:08;;;;;;;30.85;12.70;;;;;;;1.30;82.27;98893.06;4759551;30;20056;-69
2021/11/27 06:53:34;;;;;;;26.75;12.35;;;;;;;1.27;82.49;98882.63;4776712;30;20137;-69
2021/11/27 06:56:01;;;;;;;30.77;11.52;;;;;;;1.31;82.24;98890.28;4760303;30;20051;-71
2021/11/27 06:58:27;;;;;;;29.63;13.18;;;;;;;1.08;81.97;98849.38;4776532;30;20081;-70
2021/11/27 07:01:19;;;;;;;25.75;11.82;;;;;;;1.17;82.17;98909.94;4749978;30;20056;-69
2021/11/27 07:04:04;;;;;;;24.73;11.52;;;;;;;1.13;81.89;98924.44;4770205;30;20147;-69
2021/11/27 07:06:49;;;;;;;24.98;10.50;;;;;;;1.11;81.83;98915.69;4761688;30;20055;-70
2021/11/27 07:09:24;;;;;;;26.23;11.82;;;;;;;1.16;81.77;98897.56;4752416;30;20063;-71
2021/11/27 07:12:10;;;;;;;29.80;14.18;;;;;;;1.06;81.18;98896.56;4749582;30;20471;-70
2021/11/27 07:14:42;;;;;;;30.45;15.93;;;;;;;1.06;81.13;98911.66;4756495;30;20084;-68
2021/11/27 07:17:08;;;;;;;28.27;13.80;;;;;;;1.01;81.32;98898.69;4748380;30;20511;-70
2021/11/27 07:19:33;;;;;;;33.80;13.48;;;;;;;0.76;81.60;98882.75;4755567;30;20063;-70
2021/11/27 07:22:01;;;;;;;32.92;17.90;;;;;;;0.91;81.33;98903.78;4758635;30;20422;-70
2021/11/27 07:24:27;;;;;;;32.95;15.75;;;;;;;0.91;81.21;98902.94;4773756;30;20543;-73
2021/11/27 07:26:53;;;;;;;32.53;12.55;;;;;;;0.92;81.41;98896.69;4780041;30;20091;-76
2021/11/27 07:29:19;;;;;;;31.13;18.17;;;;;;;0.66;81.87;98845.34;4758695;30;20060;-78
2021/11/27 07:31:48;;;;;;;29.95;16.33;;;;;;;0.81;81.49;98880.63;4788404;29;20087;-78
2021/11/27 07:34:15;;;;;;;30.90;13.60;;;;;;;0.77;81.38;98860.50;4764231;30;20108;-74
2021/11/27 07:36:41;;;;;;;31.23;16.45;;;;;;;0.64;81.56;98842.78;4762153;30;20173;-70
2021/11/27 07:39:09;;;;;;;31.33;15.73;;;;;;;0.65;81.38;98838.28;4762089;30;20146;-71
2021/11/27 07:41:35;;;;;;;33.90;17.73;;;;;;;0.65;81.93;98847.13;4775673;29;20063;-74
2021/11/27 07:44:08;;;;;;;29.40;12.48;;;;;;;0.63;81.67;98833.09;4760999;30;20487;-71
2021/11/27 07:47:12;;;;;;;27.50;12.35;;;;;;;0.79;81.49;98847.97;4774953;29;20063;-69
2021/11/27 07:49:56;;;;;;;31.52;13.35;;;;;;;0.69;81.40;98829.97;4764405;29;20065;-70
2021/11/27 07:52:41;;;;;;;29.55;12.27;;;;;;;0.83;81.69;98836.13;4774554;30;20116;-70
2021/11/27 07:55:07;;;;;;;30.48;13.85;;;;;;;0.90;81.24;98829.41;4767356;30;20399;-71
2021/11/27 07:57:33;;;;;;;32.38;17.65;;;;;;;0.81;81.08;98811.47;4779249;30;20574;-74
2021/11/27 08:00:06;;;;;;;25.17;10.60;;;;;;;0.85;80.83;98810.28;4771203;30;20150;-70
2021/11/27 08:02:39;;;;;;;35.08;16.60;;;;;;;0.80;81.27;98810.59;4774456;30;20070;-71
2021/11/27 08:05:06;;;;;;;31.83;12.48;;;;;;;0.74;81.04;98788.94;4772313;30;20072;-71
2021/11/27 08:07:35;;;;;;;33.75;17.45;;;;;;;0.76;80.93;98792.31;4755905;30;20067;-71
2021/11/27 08:10:04;;;;;;;28.10;13.50;;;;;;;0.88;80.66;98802.09;4766619;30;20055;-70
2021/11/27 08:12:30;;;;;;;26.52;10.63;;;;;;;0.90;80.62;98794.81;4773768;30;20059;-70
2021/11/27 08:14:56;;;;;;;32.60;14.63;;;;;;;0.92;80.70;98784.94;4744055;30;20067;-71
2021/11/27 08:17:22;;;;;;;33.70;15.55;;;;;;;0.86;80.84;98790.69;4757638;30;20507;-71
2021/11/27 08:19:48;;;;;;;37.75;14.90;;;;;;;0.66;80.72;98761.06;4744025;30;20468;-71
2021/11/27 08:22:14;;;;;;;28.60;13.07;;;;;;;0.85;81.18;98765.06;4755828;30;20067;-71
2021/11/27 08:24:40;;;;;;;31.38;13.38;;;;;;;0.95;80.75;98771.38;4747233;30;20064;-71
2021/11/27 08:27:06;;;;;;;33.42;14.85;;;;;;;0.94;81.24;98790.97;4772134;30;20079;-70
2021/11/27 08:29:33;;;;;;;37.47;16.75;;;;;;;0.88;81.00;98784.31;4775327;30;20147;-71
2021/11/27 08:31:59;;;;;;;33.05;15.98;;;;;;;0.54;81.18;98727.38;4731501;30;20047;-71
2021/11/27 08:34:24;;;;;;;38.33;13.30;;;;;;;0.88;81.05;98754.19;4758409;30;20683;-71
2021/11/27 08:36:50;;;;;;;35.08;16.00;;;;;;;0.89;81.13;98771.84;4733999;30;20441;-71
2021/11/27 08:39:16;;;;;;;29.42;14.05;;;;;;;0.90;81.55;98768.22;4748030;30;20055;-70
2021/11/27 08:41:43;;;;;;;37.90;15.40;;;;;;;0.84;81.05;98748.25;4763400;30;20055;-70
2021/11/27 08:44:09;;;;;;;30.77;13.95;;;;;;;0.86;81.40;98788.03;4777933;30;20071;-71
2021/11/27 08:46:36;;;;;;;34.63;16.75;;;;;;;0.78;81.64;98774.44;4774443;29;20151;-75
2021/11/27 08:49:03;;;;;;;32.63;15.40;;;;;;;0.84;81.29;98766.00;4783643;30;20142;-71
2021/11/27 08:51:29;;;;;;;31.13;16.30;;;;;;;0.78;81.80;98759.34;4748845;30;20060;-71
2021/11/27 08:53:55;;;;;;;37.47;18.83;;;;;;;0.69;81.57;98759.97;4800161;29;20077;-71
2021/11/27 08:56:21;;;;;;;37.60;16.52;;;;;;;0.69;81.82;98763.50;4754187;30;20070;-71
2021/11/27 08:58:48;;;;;;;34.92;14.57;;;;;;;0.64;81.82;98717.78;4800813;29;20063;-73
2021/11/27 09:01:14;;;;;;;35.95;15.60;;;;;;;0.78;81.97;98742.53;4791405;29;20520;-73
2021/11/27 09:03:41;;;;;;;36.60;16.40;;;;;;;0.79;81.66;98737.06;4781402;29;20352;-79
2021/11/27 09:06:08;;;;;;;28.27;12.68;;;;;;;0.83;81.22;98719.09;4790552;30;20060;-71
2021/11/27 09:08:39;;;;;;;34.85;19.35;;;;;;;0.63;81.60;98710.75;4803558;29;20051;-77
2021/11/27 09:11:07;;;;;;;31.92;16.05;;;;;;;0.64;81.87;98693.84;4767480;30;20097;-76
2021/11/27 09:13:34;;;;;;;34.67;17.38;;;;;;;0.62;81.74;98717.06;4770726;30;20210;-74
2021/11/27 09:16:01;;;;;;;33.28;13.57;;;;;;;0.72;81.64;98709.22;4791238;30;20063;-78
2021/11/27 09:18:29;;;;;;;33.28;15.82;;;;;;;0.84;81.41;98748.25;4785435;29;20051;-75
2021/11/27 09:20:56;;;;;;;32.47;13.52;;;;;;;0.85;81.89;98686.09;4774822;30;20134;-78
2021/11/27 09:23:22;;;;;;;35.45;16.60;;;;;;;0.81;81.71;98686.44;4800910;29;20055;-73
2021/11/27 09:25:48;;;;;;;35.22;18.83;;;;;;;0.80;82.60;98703.34;4796841;29;20064;-73
2021/11/27 09:28:14;;;;;;;38.72;18.60;;;;;;;0.74;82.41;98677.22;4787971;30;20051;-74
2021/11/27 09:30:40;;;;;;;35.08;16.17;;;;;;;0.70;82.60;98676.59;4781207;29;20059;-75
2021/11/27 09:33:06;;;;;;;39.72;17.20;;;;;;;0.76;82.94;98692.06;4786629;30;20075;-76
2021/11/27 09:35:32;;;;;;;39.33;19.58;;;;;;;0.66;82.66;98697.25;4761877;30;20055;-77
2021/11/27 09:37:58;;;;;;;37.45;15.38;;;;;;;0.66;83.19;98670.66;4775483;30;20430;-76
2021/11/27 09:40:24;;;;;;;35.53;13.27;;;;;;;0.75;83.52;98678.91;4760727;30;20051;-75
2021/11/27 09:42:54;;;;;;;30.55;12.52;;;;;;;0.79;82.67;98685.69;4765433;30;20052;-75
2021/11/27 09:45:25;;;;;;;33.92;16.67;;;;;;;0.75;83.30;98661.13;4771421;30;20063;-80
2021/11/27 09:48:41;;;;;;;36.10;16.15;;;;;;;0.79;83.45;98667.06;4787739;30;20054;-74
2021/11/27 09:51:46;;;;;;;39.25;17.77;;;;;;;0.54;83.38;98636.13;4796770;29;20101;-78
2021/11/27 09:54:20;;;;;;;34.30;16.15;;;;;;;0.61;84.16;98664.81;4772484;30;20055;-71
2021/11/27 09:56:48;;;;;;;39.25;16.15;;;;;;;0.59;84.27;98631.31;4771495;30;20067;-74
2021/11/27 09:59:14;;;;;;;34.42;15.32;;;;;;;0.69;83.52;98643.78;4786755;30;20067;-71
2021/11/27 10:01:46;;;;;;;36.90;16.35;;;;;;;0.58;84.15;98635.78;4764706;30;20075;-78
2021/11/27 10:04:14;;;;;;;46.13;16.48;;;;;;;0.52;84.39;98609.66;4771331;30;20073;-77
2021/11/27 10:06:42;;;;;;;30.70;12.25;;;;;;;0.62;84.29;98620.44;4792599;30;20063;-78
2021/11/27 10:09:14;;;;;;;35.17;16.75;;;;;;;0.51;84.45;98629.22;4788918;29;20050;-73
2021/11/27 10:11:43;;;;;;;27.98;12.25;;;;;;;0.45;83.96;98582.66;4793583;30;20066;-76
2021/11/27 10:14:10;;;;;;;36.15;17.67;;;;;;;0.59;84.51;98600.25;4785719;30;20061;-78
2021/11/27 10:16:57;;;;;;;34.30;18.95;;;;;;;0.60;84.66;98611.75;4780372;30;20059;-77
2021/11/27 10:19:47;;;;;;;36.25;14.82;;;;;;;0.48;84.78;98581.59;4787939;30;20047;-77
2021/11/27 10:22:19;;;;;;;35.25;15.88;;;;;;;0.50;84.33;98568.19;4791714;30;20035;-78
2021/11/27 10:24:47;;;;;;;32.50;14.70;;;;;;;0.53;84.83;98589.22;4793161;30;20150;-80
2021/11/27 10:27:19;;;;;;;33.53;17.33;;;;;;;0.37;84.48;98584.22;4882225;24;20080;-81
2021/11/27 10:29:56;;;;;;;33.70;18.88;;;;;;;0.26;84.83;98574.38;4836559;29;20049;-79
2021/11/27 10:32:25;;;;;;;29.05;15.63;;;;;;;0.48;84.87;98618.81;4834159;29;20077;-78
2021/11/27 10:34:56;;;;;;;28.85;13.75;;;;;;;0.23;84.73;98562.16;4839960;29;20071;-77
2021/11/27 10:37:26;;;;;;;31.17;13.32;;;;;;;0.43;85.74;98599.69;4839500;29;20061;-78
2021/11/27 10:40:04;;;;;;;30.35;17.42;;;;;;;0.28;85.32;98601.66;4860751;29;20058;-81
2021/11/27 10:42:54;;;;;;;28.13;15.05;;;;;;;0.16;85.78;98558.25;4859882;29;20089;-80
2021/11/27 10:45:25;;;;;;;32.55;19.85;;;;;;;0.32;85.57;98594.31;4842306;29;20076;-80
2021/11/27 10:47:54;;;;;;;22.55;9.52;;;;;;;0.30;85.63;98562.53;4850652;29;20053;-81
2021/11/27 10:50:22;;;;;;;32.13;15.73;;;;;;;0.16;85.82;98552.94;4859117;29;20068;-79
2021/11/27 10:52:52;;;;;;;32.95;16.20;;;;;;;0.14;86.06;98530.91;4827487;29;20061;-80
2021/11/27 10:55:22;;;;;;;39.22;17.95;;;;;;;0.27;85.95;98540.66;4832586;29;20058;-81
2021/11/27 10:57:51;;;;;;;35.92;17.67;;;;;;;0.21;86.03;98550.75;4822270;29;20054;-80
2021/11/27 11:00:34;;;;;;;27.73;13.15;;;;;;;0.35;85.62;98557.72;4851675;29;20062;-79
2021/11/27 11:03:00;;;;;;;36.28;16.23;;;;;;;0.21;85.95;98541.94;4856098;29;20179;-79
2021/11/27 11:05:34;;;;;;;39.13;16.92;;;;;;;0.39;86.04;98550.38;4822255;29;20446;-80
2021/11/27 11:08:01;;;;;;;35.20;13.95;;;;;;;0.42;85.58;98523.56;4826089;29;20111;-81
2021/11/27 11:10:32;;;;;;;31.42;14.50;;;;;;;0.32;85.92;98522.56;4844606;29;20053;-80
2021/11/27 11:13:10;;;;;;;34.65;16.48;;;;;;;0.29;85.76;98538.72;4820406;29;20191;-79
2021/11/27 11:15:42;;;;;;;25.45;10.60;;;;;;;0.27;86.34;98503.44;4815335;29;20498;-79
2021/11/27 11:18:24;;;;;;;34.63;14.77;;;;;;;0.20;86.68;98519.84;4849159;29;20057;-79
2021/11/27 11:20:56;;;;;;;37.22;16.77;;;;;;;0.19;87.13;98528.78;4808766;29;20049;-80
2021/11/27 11:23:27;;;;;;;39.20;19.08;;;;;;;-0.05;86.49;98477.47;4825194;29;20072;-76
2021/11/27 11:26:06;;;;;;;43.33;23.67;;;;;;;0.06;86.66;98490.78;4870027;29;20081;-78
2021/11/27 11:28:39;;;;;;;43.05;23.33;;;;;;;0.16;86.86;98510.41;4807202;29;20086;-78
2021/11/27 11:31:12;;;;;;;31.33;12.18;;;;;;;0.30;87.18;98524.50;4840145;29;20124;-78
2021/11/27 11:33:40;;;;;;;45.13;23.17;;;;;;;0.15;86.76;98514.03;4848913;29;20060;-74
2021/11/27 11:36:10;;;;;;;47.35;24.58;;;;;;;0.12;86.82;98506.28;4843161;29;20419;-78